sensor_id;sensor_type;location;lat;lon;timestamp;P1;durP1;ratioP1;P2;durP2;ratioP2
55815;SDS011;41744;52.404;16.942;2022-10-31T00:00:20;54.45;;;28.75;;
55815;SDS011;41744;52.404;16.942;2022-10-31T00:02:46;55.30;;;28.90;;
55815;SDS011;41744;52.404;16.942;2022-10-31T00:05:12;70.95;;;31.63;;
55815;SDS011;41744;52.404;16.942;2022-10-31T00:07:38;89.45;;;36.97;;
55815;SDS011;41744;52.404;16.942;2022-10-31T00:10:04;106.22;;;40.05;;
55815;SDS011;41744;52.404;16.942;2022-10-31T00:12:30;109.72;;;39.40;;
55815;SDS011;41744;52.404;16.942;2022-10-31T00:14:56;101.32;;;40.80;;
55815;SDS011;41744;52.404;16.942;2022-10-31T00:17:22;91.47;;;37.42;;
55815;SDS011;41744;52.404;16.942;2022-10-31T00:19:48;79.20;;;34.90;;
55815;SDS011;41744;52.404;16.942;2022-10-31T00:22:14;78.65;;;34.00;;
55815;SDS011;41744;52.404;16.942;2022-10-31T00:24:40;71.90;;;34.65;;
55815;SDS011;41744;52.404;16.942;2022-10-31T00:27:06;83.90;;;36.70;;
55815;SDS011;41744;52.404;16.942;2022-10-31T00:29:32;89.27;;;38.07;;
55815;SDS011;41744;52.404;16.942;2022-10-31T00:31:58;90.83;;;37.63;;
55815;SDS011;41744;52.404;16.942;2022-10-31T00:34:24;98.93;;;38.63;;
55815;SDS011;41744;52.404;16.942;2022-10-31T00:36:50;110.10;;;40.63;;
55815;SDS011;41744;52.404;16.942;2022-10-31T00:39:16;104.43;;;39.60;;
55815;SDS011;41744;52.404;16.942;2022-10-31T00:41:42;126.30;;;43.15;;
55815;SDS011;41744;52.404;16.942;2022-10-31T00:44:08;115.97;;;41.87;;
55815;SDS011;41744;52.404;16.942;2022-10-31T00:46:34;128.32;;;44.38;;
55815;SDS011;41744;52.404;16.942;2022-10-31T00:49:00;128.40;;;45.97;;
55815;SDS011;41744;52.404;16.942;2022-10-31T00:51:26;120.57;;;43.35;;
55815;SDS011;41744;52.404;16.942;2022-10-31T00:53:52;111.80;;;41.77;;
55815;SDS011;41744;52.404;16.942;2022-10-31T00:56:18;112.10;;;41.33;;
55815;SDS011;41744;52.404;16.942;2022-10-31T00:58:44;91.17;;;38.10;;
55815;SDS011;41744;52.404;16.942;2022-10-31T01:01:10;99.57;;;38.88;;
55815;SDS011;41744;52.404;16.942;2022-10-31T01:03:36;94.35;;;38.88;;
55815;SDS011;41744;52.404;16.942;2022-10-31T01:06:04;136.93;;;46.60;;
55815;SDS011;41744;52.404;16.942;2022-10-31T01:08:31;191.00;;;55.30;;
55815;SDS011;41744;52.404;16.942;2022-10-31T01:11:01;188.95;;;57.70;;
55815;SDS011;41744;52.404;16.942;2022-10-31T01:13:28;171.83;;;54.60;;
55815;SDS011;41744;52.404;16.942;2022-10-31T01:15:54;161.13;;;51.63;;
55815;SDS011;41744;52.404;16.942;2022-10-31T01:18:21;143.43;;;50.22;;
55815;SDS011;41744;52.404;16.942;2022-10-31T01:20:47;139.77;;;48.67;;
55815;SDS011;41744;52.404;16.942;2022-10-31T01:23:13;123.43;;;44.77;;
55815;SDS011;41744;52.404;16.942;2022-10-31T01:25:39;120.03;;;46.07;;
55815;SDS011;41744;52.404;16.942;2022-10-31T01:28:05;118.40;;;45.97;;
55815;SDS011;41744;52.404;16.942;2022-10-31T01:30:31;115.22;;;45.20;;
55815;SDS011;41744;52.404;16.942;2022-10-31T01:32:57;119.40;;;44.63;;
55815;SDS011;41744;52.404;16.942;2022-10-31T01:35:23;113.73;;;42.63;;
55815;SDS011;41744;52.404;16.942;2022-10-31T01:37:49;103.78;;;42.72;;
55815;SDS011;41744;52.404;16.942;2022-10-31T01:40:15;90.80;;;38.27;;
55815;SDS011;41744;52.404;16.942;2022-10-31T01:42:41;74.83;;;34.30;;
55815;SDS011;41744;52.404;16.942;2022-10-31T01:45:09;71.87;;;33.43;;
55815;SDS011;41744;52.404;16.942;2022-10-31T01:47:38;68.40;;;32.28;;
55815;SDS011;41744;52.404;16.942;2022-10-31T01:50:09;65.45;;;30.45;;
55815;SDS011;41744;52.404;16.942;2022-10-31T01:52:37;56.35;;;28.70;;
55815;SDS011;41744;52.404;16.942;2022-10-31T01:55:05;53.47;;;27.17;;
55815;SDS011;41744;52.404;16.942;2022-10-31T01:57:33;47.63;;;26.03;;
55815;SDS011;41744;52.404;16.942;2022-10-31T02:00:01;47.23;;;25.70;;
55815;SDS011;41744;52.404;16.942;2022-10-31T02:02:28;46.17;;;24.33;;
55815;SDS011;41744;52.404;16.942;2022-10-31T02:04:55;51.33;;;25.83;;
55815;SDS011;41744;52.404;16.942;2022-10-31T02:07:25;43.73;;;25.57;;
55815;SDS011;41744;52.404;16.942;2022-10-31T02:09:52;49.07;;;26.90;;
55815;SDS011;41744;52.404;16.942;2022-10-31T02:12:19;48.13;;;27.07;;
55815;SDS011;41744;52.404;16.942;2022-10-31T02:14:45;47.60;;;26.00;;
55815;SDS011;41744;52.404;16.942;2022-10-31T02:17:12;52.27;;;27.30;;
55815;SDS011;41744;52.404;16.942;2022-10-31T02:19:41;54.77;;;26.43;;
55815;SDS011;41744;52.404;16.942;2022-10-31T02:24:51;48.50;;;26.07;;
55815;SDS011;41744;52.404;16.942;2022-10-31T02:30:07;46.97;;;25.33;;
55815;SDS011;41744;52.404;16.942;2022-10-31T02:32:38;49.67;;;25.60;;
55815;SDS011;41744;52.404;16.942;2022-10-31T02:35:09;50.77;;;25.63;;
55815;SDS011;41744;52.404;16.942;2022-10-31T02:40:27;46.03;;;24.40;;
55815;SDS011;41744;52.404;16.942;2022-10-31T02:45:25;50.03;;;25.00;;
55815;SDS011;41744;52.404;16.942;2022-10-31T02:47:53;46.37;;;24.53;;
55815;SDS011;41744;52.404;16.942;2022-10-31T02:50:28;47.77;;;24.80;;
55815;SDS011;41744;52.404;16.942;2022-10-31T02:52:55;48.40;;;24.63;;
55815;SDS011;41744;52.404;16.942;2022-10-31T02:57:50;46.30;;;24.50;;
55815;SDS011;41744;52.404;16.942;2022-10-31T03:00:17;53.80;;;25.10;;
55815;SDS011;41744;52.404;16.942;2022-10-31T03:02:48;47.27;;;24.53;;
55815;SDS011;41744;52.404;16.942;2022-10-31T03:17:53;45.50;;;24.67;;
55815;SDS011;41744;52.404;16.942;2022-10-31T03:20:21;45.27;;;24.27;;
55815;SDS011;41744;52.404;16.942;2022-10-31T03:22:48;45.77;;;24.37;;
55815;SDS011;41744;52.404;16.942;2022-10-31T03:25:14;50.70;;;24.03;;
55815;SDS011;41744;52.404;16.942;2022-10-31T03:27:40;49.40;;;24.80;;
55815;SDS011;41744;52.404;16.942;2022-10-31T03:30:08;47.60;;;24.60;;
55815;SDS011;41744;52.404;16.942;2022-10-31T03:32:35;46.87;;;23.83;;
55815;SDS011;41744;52.404;16.942;2022-10-31T03:35:04;54.07;;;24.23;;
55815;SDS011;41744;52.404;16.942;2022-10-31T03:37:32;44.20;;;23.13;;
55815;SDS011;41744;52.404;16.942;2022-10-31T03:39:59;44.37;;;23.17;;
55815;SDS011;41744;52.404;16.942;2022-10-31T03:42:30;46.07;;;23.73;;
55815;SDS011;41744;52.404;16.942;2022-10-31T03:47:46;46.73;;;23.63;;
55815;SDS011;41744;52.404;16.942;2022-10-31T03:50:13;47.37;;;24.07;;
55815;SDS011;41744;52.404;16.942;2022-10-31T03:52:47;43.42;;;24.10;;
55815;SDS011;41744;52.404;16.942;2022-10-31T03:55:18;41.43;;;22.23;;
55815;SDS011;41744;52.404;16.942;2022-10-31T04:00:11;48.67;;;23.47;;
55815;SDS011;41744;52.404;16.942;2022-10-31T04:02:40;41.10;;;22.23;;
55815;SDS011;41744;52.404;16.942;2022-10-31T04:05:08;44.80;;;23.90;;
55815;SDS011;41744;52.404;16.942;2022-10-31T04:07:37;43.50;;;23.17;;
55815;SDS011;41744;52.404;16.942;2022-10-31T04:10:05;44.40;;;23.80;;
55815;SDS011;41744;52.404;16.942;2022-10-31T04:12:32;47.57;;;24.67;;
55815;SDS011;41744;52.404;16.942;2022-10-31T04:15:00;49.83;;;25.63;;
55815;SDS011;41744;52.404;16.942;2022-10-31T04:17:27;52.30;;;25.60;;
55815;SDS011;41744;52.404;16.942;2022-10-31T04:19:55;49.50;;;25.60;;
55815;SDS011;41744;52.404;16.942;2022-10-31T04:22:21;51.53;;;24.73;;
55815;SDS011;41744;52.404;16.942;2022-10-31T04:24:47;51.77;;;26.13;;
55815;SDS011;41744;52.404;16.942;2022-10-31T04:27:13;57.87;;;27.17;;
55815;SDS011;41744;52.404;16.942;2022-10-31T04:29:39;50.07;;;25.53;;
55815;SDS011;41744;52.404;16.942;2022-10-31T04:32:05;57.73;;;26.97;;
55815;SDS011;41744;52.404;16.942;2022-10-31T04:34:31;55.08;;;26.20;;
55815;SDS011;41744;52.404;16.942;2022-10-31T04:36:57;53.63;;;26.37;;
55815;SDS011;41744;52.404;16.942;2022-10-31T04:39:22;54.70;;;25.57;;
55815;SDS011;41744;52.404;16.942;2022-10-31T04:41:48;53.00;;;24.60;;
55815;SDS011;41744;52.404;16.942;2022-10-31T04:44:15;52.77;;;25.43;;
55815;SDS011;41744;52.404;16.942;2022-10-31T04:46:41;49.63;;;23.77;;
55815;SDS011;41744;52.404;16.942;2022-10-31T04:49:07;50.77;;;24.40;;
55815;SDS011;41744;52.404;16.942;2022-10-31T04:51:33;52.90;;;24.47;;
55815;SDS011;41744;52.404;16.942;2022-10-31T04:53:59;49.33;;;23.97;;
55815;SDS011;41744;52.404;16.942;2022-10-31T04:56:25;52.23;;;23.60;;
55815;SDS011;41744;52.404;16.942;2022-10-31T04:58:51;49.13;;;24.00;;
55815;SDS011;41744;52.404;16.942;2022-10-31T05:01:17;45.87;;;22.67;;
55815;SDS011;41744;52.404;16.942;2022-10-31T05:03:43;46.67;;;22.90;;
55815;SDS011;41744;52.404;16.942;2022-10-31T05:06:09;42.20;;;20.60;;
55815;SDS011;41744;52.404;16.942;2022-10-31T05:08:34;38.83;;;21.37;;
55815;SDS011;41744;52.404;16.942;2022-10-31T05:11:01;41.07;;;20.37;;
55815;SDS011;41744;52.404;16.942;2022-10-31T05:13:28;39.37;;;20.03;;
55815;SDS011;41744;52.404;16.942;2022-10-31T05:15:53;39.47;;;20.07;;
55815;SDS011;41744;52.404;16.942;2022-10-31T05:18:19;43.67;;;20.80;;
55815;SDS011;41744;52.404;16.942;2022-10-31T05:20:45;42.77;;;21.13;;
55815;SDS011;41744;52.404;16.942;2022-10-31T05:23:12;37.47;;;19.80;;
55815;SDS011;41744;52.404;16.942;2022-10-31T05:25:39;39.33;;;19.30;;
55815;SDS011;41744;52.404;16.942;2022-10-31T05:28:05;35.80;;;19.27;;
55815;SDS011;41744;52.404;16.942;2022-10-31T05:30:31;41.60;;;19.83;;
55815;SDS011;41744;52.404;16.942;2022-10-31T05:32:58;44.43;;;20.07;;
55815;SDS011;41744;52.404;16.942;2022-10-31T05:35:25;38.80;;;18.93;;
55815;SDS011;41744;52.404;16.942;2022-10-31T05:37:51;41.40;;;18.77;;
55815;SDS011;41744;52.404;16.942;2022-10-31T05:40:18;44.10;;;20.27;;
55815;SDS011;41744;52.404;16.942;2022-10-31T05:42:44;39.97;;;19.60;;
55815;SDS011;41744;52.404;16.942;2022-10-31T05:45:12;38.90;;;19.43;;
55815;SDS011;41744;52.404;16.942;2022-10-31T05:47:38;41.10;;;19.57;;
55815;SDS011;41744;52.404;16.942;2022-10-31T05:50:04;44.10;;;21.33;;
55815;SDS011;41744;52.404;16.942;2022-10-31T05:52:31;48.33;;;22.03;;
55815;SDS011;41744;52.404;16.942;2022-10-31T05:54:57;49.03;;;23.07;;
55815;SDS011;41744;52.404;16.942;2022-10-31T05:57:23;54.00;;;24.93;;
55815;SDS011;41744;52.404;16.942;2022-10-31T05:59:49;56.00;;;25.57;;
55815;SDS011;41744;52.404;16.942;2022-10-31T06:02:18;46.87;;;23.93;;
55815;SDS011;41744;52.404;16.942;2022-10-31T06:04:44;53.00;;;24.33;;
55815;SDS011;41744;52.404;16.942;2022-10-31T06:07:10;50.87;;;23.60;;
55815;SDS011;41744;52.404;16.942;2022-10-31T06:09:36;50.73;;;24.37;;
55815;SDS011;41744;52.404;16.942;2022-10-31T06:12:02;56.60;;;25.63;;
55815;SDS011;41744;52.404;16.942;2022-10-31T06:14:28;51.10;;;23.67;;
55815;SDS011;41744;52.404;16.942;2022-10-31T06:16:54;51.80;;;22.70;;
55815;SDS011;41744;52.404;16.942;2022-10-31T06:19:20;46.23;;;21.60;;
55815;SDS011;41744;52.404;16.942;2022-10-31T06:21:46;41.50;;;20.03;;
55815;SDS011;41744;52.404;16.942;2022-10-31T06:24:12;43.10;;;18.67;;
55815;SDS011;41744;52.404;16.942;2022-10-31T06:26:39;40.00;;;19.77;;
55815;SDS011;41744;52.404;16.942;2022-10-31T06:29:05;47.27;;;19.57;;
55815;SDS011;41744;52.404;16.942;2022-10-31T06:31:31;43.03;;;18.03;;
55815;SDS011;41744;52.404;16.942;2022-10-31T06:33:57;40.97;;;19.53;;
55815;SDS011;41744;52.404;16.942;2022-10-31T06:36:23;44.93;;;18.97;;
55815;SDS011;41744;52.404;16.942;2022-10-31T06:38:49;42.13;;;18.83;;
55815;SDS011;41744;52.404;16.942;2022-10-31T06:41:16;38.80;;;18.60;;
55815;SDS011;41744;52.404;16.942;2022-10-31T06:43:42;40.87;;;19.03;;
55815;SDS011;41744;52.404;16.942;2022-10-31T06:46:07;41.40;;;19.03;;
55815;SDS011;41744;52.404;16.942;2022-10-31T06:48:33;42.70;;;19.83;;
55815;SDS011;41744;52.404;16.942;2022-10-31T06:51:00;38.17;;;18.73;;
55815;SDS011;41744;52.404;16.942;2022-10-31T06:53:26;38.97;;;18.00;;
55815;SDS011;41744;52.404;16.942;2022-10-31T06:55:55;42.78;;;18.92;;
55815;SDS011;41744;52.404;16.942;2022-10-31T06:58:21;44.60;;;19.60;;
55815;SDS011;41744;52.404;16.942;2022-10-31T07:00:47;36.88;;;18.13;;
55815;SDS011;41744;52.404;16.942;2022-10-31T07:03:13;41.87;;;19.20;;
55815;SDS011;41744;52.404;16.942;2022-10-31T07:05:40;36.70;;;17.83;;
55815;SDS011;41744;52.404;16.942;2022-10-31T07:08:07;32.27;;;17.33;;
55815;SDS011;41744;52.404;16.942;2022-10-31T07:10:34;36.53;;;17.77;;
55815;SDS011;41744;52.404;16.942;2022-10-31T07:13:01;36.45;;;17.85;;
55815;SDS011;41744;52.404;16.942;2022-10-31T07:15:29;35.35;;;17.23;;
55815;SDS011;41744;52.404;16.942;2022-10-31T07:17:59;32.17;;;16.63;;
55815;SDS011;41744;52.404;16.942;2022-10-31T07:20:26;38.63;;;17.40;;
55815;SDS011;41744;52.404;16.942;2022-10-31T07:22:52;35.53;;;17.80;;
55815;SDS011;41744;52.404;16.942;2022-10-31T07:25:18;34.37;;;17.73;;
55815;SDS011;41744;52.404;16.942;2022-10-31T07:27:44;31.23;;;16.87;;
55815;SDS011;41744;52.404;16.942;2022-10-31T07:30:10;31.67;;;16.90;;
55815;SDS011;41744;52.404;16.942;2022-10-31T07:32:40;36.10;;;18.20;;
55815;SDS011;41744;52.404;16.942;2022-10-31T07:35:07;33.63;;;17.57;;
55815;SDS011;41744;52.404;16.942;2022-10-31T07:37:33;39.88;;;18.05;;
55815;SDS011;41744;52.404;16.942;2022-10-31T07:39:59;36.05;;;18.70;;
55815;SDS011;41744;52.404;16.942;2022-10-31T07:42:25;36.83;;;18.07;;
55815;SDS011;41744;52.404;16.942;2022-10-31T07:44:51;40.78;;;18.92;;
55815;SDS011;41744;52.404;16.942;2022-10-31T07:47:17;38.90;;;18.85;;
55815;SDS011;41744;52.404;16.942;2022-10-31T07:49:43;37.85;;;17.60;;
55815;SDS011;41744;52.404;16.942;2022-10-31T07:52:09;44.15;;;17.88;;
55815;SDS011;41744;52.404;16.942;2022-10-31T07:54:36;44.55;;;19.85;;
55815;SDS011;41744;52.404;16.942;2022-10-31T07:57:02;44.45;;;19.25;;
55815;SDS011;41744;52.404;16.942;2022-10-31T07:59:28;45.38;;;19.63;;
55815;SDS011;41744;52.404;16.942;2022-10-31T08:01:54;41.13;;;18.92;;
55815;SDS011;41744;52.404;16.942;2022-10-31T08:04:20;45.05;;;17.25;;
55815;SDS011;41744;52.404;16.942;2022-10-31T08:06:46;37.25;;;18.77;;
55815;SDS011;41744;52.404;16.942;2022-10-31T08:09:13;46.25;;;19.15;;
55815;SDS011;41744;52.404;16.942;2022-10-31T08:11:39;43.10;;;18.73;;
55815;SDS011;41744;52.404;16.942;2022-10-31T08:14:05;43.75;;;17.90;;
55815;SDS011;41744;52.404;16.942;2022-10-31T08:16:31;40.20;;;16.63;;
55815;SDS011;41744;52.404;16.942;2022-10-31T08:18:57;38.42;;;16.98;;
55815;SDS011;41744;52.404;16.942;2022-10-31T08:21:23;38.92;;;16.42;;
55815;SDS011;41744;52.404;16.942;2022-10-31T08:23:49;38.15;;;16.92;;
55815;SDS011;41744;52.404;16.942;2022-10-31T08:26:15;36.67;;;16.17;;
55815;SDS011;41744;52.404;16.942;2022-10-31T08:28:41;35.47;;;17.33;;
55815;SDS011;41744;52.404;16.942;2022-10-31T08:31:07;37.33;;;16.38;;
55815;SDS011;41744;52.404;16.942;2022-10-31T08:33:35;34.25;;;16.35;;
55815;SDS011;41744;52.404;16.942;2022-10-31T08:36:01;36.53;;;16.95;;
55815;SDS011;41744;52.404;16.942;2022-10-31T08:38:27;35.15;;;16.35;;
55815;SDS011;41744;52.404;16.942;2022-10-31T08:40:53;33.75;;;16.40;;
55815;SDS011;41744;52.404;16.942;2022-10-31T08:43:19;37.08;;;16.95;;
55815;SDS011;41744;52.404;16.942;2022-10-31T08:45:47;37.88;;;17.42;;
55815;SDS011;41744;52.404;16.942;2022-10-31T08:48:14;40.70;;;17.42;;
55815;SDS011;41744;52.404;16.942;2022-10-31T08:50:41;40.38;;;18.52;;
55815;SDS011;41744;52.404;16.942;2022-10-31T08:53:11;34.85;;;17.73;;
55815;SDS011;41744;52.404;16.942;2022-10-31T08:55:38;37.40;;;17.50;;
55815;SDS011;41744;52.404;16.942;2022-10-31T08:58:06;38.10;;;17.27;;
55815;SDS011;41744;52.404;16.942;2022-10-31T09:00:33;39.28;;;17.98;;
55815;SDS011;41744;52.404;16.942;2022-10-31T09:03:00;40.05;;;17.77;;
55815;SDS011;41744;52.404;16.942;2022-10-31T09:05:28;35.00;;;18.40;;
55815;SDS011;41744;52.404;16.942;2022-10-31T09:07:55;35.53;;;18.10;;
55815;SDS011;41744;52.404;16.942;2022-10-31T09:10:22;34.25;;;18.17;;
55815;SDS011;41744;52.404;16.942;2022-10-31T09:12:54;35.88;;;18.75;;
55815;SDS011;41744;52.404;16.942;2022-10-31T09:15:20;40.05;;;18.65;;
55815;SDS011;41744;52.404;16.942;2022-10-31T09:17:47;40.70;;;19.15;;
55815;SDS011;41744;52.404;16.942;2022-10-31T09:20:13;35.25;;;18.50;;
55815;SDS011;41744;52.404;16.942;2022-10-31T09:22:40;36.53;;;19.45;;
55815;SDS011;41744;52.404;16.942;2022-10-31T09:25:06;37.67;;;19.02;;
55815;SDS011;41744;52.404;16.942;2022-10-31T09:27:32;38.17;;;19.42;;
55815;SDS011;41744;52.404;16.942;2022-10-31T09:29:58;39.75;;;19.95;;
55815;SDS011;41744;52.404;16.942;2022-10-31T09:32:24;40.42;;;20.30;;
55815;SDS011;41744;52.404;16.942;2022-10-31T09:34:50;40.65;;;19.83;;
55815;SDS011;41744;52.404;16.942;2022-10-31T09:37:16;43.22;;;21.00;;
55815;SDS011;41744;52.404;16.942;2022-10-31T09:39:42;39.63;;;20.40;;
55815;SDS011;41744;52.404;16.942;2022-10-31T09:50:15;42.88;;;20.13;;
55815;SDS011;41744;52.404;16.942;2022-10-31T09:52:47;38.10;;;19.30;;
55815;SDS011;41744;52.404;16.942;2022-10-31T09:55:19;39.58;;;18.15;;
55815;SDS011;41744;52.404;16.942;2022-10-31T09:57:46;36.83;;;17.38;;
55815;SDS011;41744;52.404;16.942;2022-10-31T10:00:19;33.90;;;17.08;;
55815;SDS011;41744;52.404;16.942;2022-10-31T10:08:20;32.80;;;17.00;;
55815;SDS011;41744;52.404;16.942;2022-10-31T10:11:22;36.30;;;18.25;;
55815;SDS011;41744;52.404;16.942;2022-10-31T10:13:39;43.55;;;17.67;;
55815;SDS011;41744;52.404;16.942;2022-10-31T10:16:13;38.67;;;17.40;;
55815;SDS011;41744;52.404;16.942;2022-10-31T10:26:45;29.77;;;15.30;;
55815;SDS011;41744;52.404;16.942;2022-10-31T10:29:26;50.15;;;21.90;;
55815;SDS011;41744;52.404;16.942;2022-10-31T10:31:54;44.83;;;20.75;;
55815;SDS011;41744;52.404;16.942;2022-10-31T10:34:22;35.65;;;16.75;;
55815;SDS011;41744;52.404;16.942;2022-10-31T10:36:52;33.53;;;17.98;;
55815;SDS011;41744;52.404;16.942;2022-10-31T18:45:15;61.20;;;26.27;;
55815;SDS011;41744;52.404;16.942;2022-10-31T18:47:41;56.53;;;25.08;;
55815;SDS011;41744;52.404;16.942;2022-10-31T18:50:07;56.47;;;25.60;;
55815;SDS011;41744;52.404;16.942;2022-10-31T18:52:34;58.60;;;25.35;;
55815;SDS011;41744;52.404;16.942;2022-10-31T18:55:00;56.33;;;25.50;;
55815;SDS011;41744;52.404;16.942;2022-10-31T18:57:26;54.33;;;24.67;;
55815;SDS011;41744;52.404;16.942;2022-10-31T18:59:53;56.38;;;24.58;;
55815;SDS011;41744;52.404;16.942;2022-10-31T19:02:20;60.13;;;23.65;;
55815;SDS011;41744;52.404;16.942;2022-10-31T19:04:46;56.85;;;24.30;;
55815;SDS011;41744;52.404;16.942;2022-10-31T19:07:12;53.00;;;23.15;;
55815;SDS011;41744;52.404;16.942;2022-10-31T19:09:39;48.92;;;23.15;;
55815;SDS011;41744;52.404;16.942;2022-10-31T19:12:05;49.47;;;23.23;;
55815;SDS011;41744;52.404;16.942;2022-10-31T19:14:31;47.20;;;22.77;;
55815;SDS011;41744;52.404;16.942;2022-10-31T19:16:58;49.67;;;24.27;;
55815;SDS011;41744;52.404;16.942;2022-10-31T19:19:24;49.63;;;23.70;;
55815;SDS011;41744;52.404;16.942;2022-10-31T19:21:51;52.92;;;22.95;;
55815;SDS011;41744;52.404;16.942;2022-10-31T19:24:17;44.22;;;21.92;;
55815;SDS011;41744;52.404;16.942;2022-10-31T19:26:43;50.28;;;22.15;;
55815;SDS011;41744;52.404;16.942;2022-10-31T19:29:09;47.67;;;22.85;;
55815;SDS011;41744;52.404;16.942;2022-10-31T19:31:35;49.58;;;22.35;;
55815;SDS011;41744;52.404;16.942;2022-10-31T19:34:01;50.20;;;23.23;;
55815;SDS011;41744;52.404;16.942;2022-10-31T19:36:27;56.28;;;24.08;;
55815;SDS011;41744;52.404;16.942;2022-10-31T19:38:53;51.60;;;23.95;;
55815;SDS011;41744;52.404;16.942;2022-10-31T19:41:20;50.75;;;22.67;;
55815;SDS011;41744;52.404;16.942;2022-10-31T19:43:47;58.17;;;24.25;;
55815;SDS011;41744;52.404;16.942;2022-10-31T19:46:14;49.83;;;23.05;;
55815;SDS011;41744;52.404;16.942;2022-10-31T19:48:40;50.83;;;24.08;;
55815;SDS011;41744;52.404;16.942;2022-10-31T19:51:07;51.47;;;24.02;;
55815;SDS011;41744;52.404;16.942;2022-10-31T19:53:34;49.83;;;22.65;;
55815;SDS011;41744;52.404;16.942;2022-10-31T19:56:00;50.45;;;24.35;;
55815;SDS011;41744;52.404;16.942;2022-10-31T19:58:26;48.97;;;23.58;;
55815;SDS011;41744;52.404;16.942;2022-10-31T20:00:52;47.10;;;24.08;;
55815;SDS011;41744;52.404;16.942;2022-10-31T20:03:19;50.10;;;24.40;;
55815;SDS011;41744;52.404;16.942;2022-10-31T20:05:45;50.58;;;24.10;;
55815;SDS011;41744;52.404;16.942;2022-10-31T20:08:12;48.65;;;23.13;;
55815;SDS011;41744;52.404;16.942;2022-10-31T20:10:39;48.00;;;23.95;;
55815;SDS011;41744;52.404;16.942;2022-10-31T20:13:05;52.00;;;24.02;;
55815;SDS011;41744;52.404;16.942;2022-10-31T20:15:32;51.08;;;23.42;;
55815;SDS011;41744;52.404;16.942;2022-10-31T20:17:58;46.67;;;23.95;;
55815;SDS011;41744;52.404;16.942;2022-10-31T20:20:24;48.45;;;23.20;;
55815;SDS011;41744;52.404;16.942;2022-10-31T20:22:50;51.67;;;24.63;;
55815;SDS011;41744;52.404;16.942;2022-10-31T20:25:16;60.53;;;23.05;;
55815;SDS011;41744;52.404;16.942;2022-10-31T20:27:42;57.97;;;24.67;;
55815;SDS011;41744;52.404;16.942;2022-10-31T20:30:09;56.67;;;24.38;;
55815;SDS011;41744;52.404;16.942;2022-10-31T20:32:35;49.45;;;23.63;;
55815;SDS011;41744;52.404;16.942;2022-10-31T20:35:01;56.08;;;24.60;;
55815;SDS011;41744;52.404;16.942;2022-10-31T20:37:27;52.70;;;24.38;;
55815;SDS011;41744;52.404;16.942;2022-10-31T20:39:53;53.13;;;24.27;;
55815;SDS011;41744;52.404;16.942;2022-10-31T20:42:19;52.63;;;23.83;;
55815;SDS011;41744;52.404;16.942;2022-10-31T20:44:45;50.80;;;23.23;;
55815;SDS011;41744;52.404;16.942;2022-10-31T20:47:11;66.30;;;22.77;;
55815;SDS011;41744;52.404;16.942;2022-10-31T20:49:37;57.95;;;24.40;;
55815;SDS011;41744;52.404;16.942;2022-10-31T20:52:03;53.60;;;23.58;;
55815;SDS011;41744;52.404;16.942;2022-10-31T20:54:29;49.15;;;22.58;;
55815;SDS011;41744;52.404;16.942;2022-10-31T20:56:55;55.85;;;23.02;;
55815;SDS011;41744;52.404;16.942;2022-10-31T20:59:21;55.97;;;23.52;;
55815;SDS011;41744;52.404;16.942;2022-10-31T21:01:47;47.25;;;22.48;;
55815;SDS011;41744;52.404;16.942;2022-10-31T21:04:13;48.33;;;22.15;;
55815;SDS011;41744;52.404;16.942;2022-10-31T21:06:39;65.65;;;29.60;;
55815;SDS011;41744;52.404;16.942;2022-10-31T21:09:05;52.25;;;23.83;;
55815;SDS011;41744;52.404;16.942;2022-10-31T21:11:32;46.95;;;22.88;;
55815;SDS011;41744;52.404;16.942;2022-10-31T21:13:58;46.28;;;22.45;;
55815;SDS011;41744;52.404;16.942;2022-10-31T21:16:27;48.20;;;22.08;;
55815;SDS011;41744;52.404;16.942;2022-10-31T21:18:54;49.67;;;24.23;;
55815;SDS011;41744;52.404;16.942;2022-10-31T21:21:21;49.05;;;22.63;;
55815;SDS011;41744;52.404;16.942;2022-10-31T21:23:52;53.75;;;22.60;;
55815;SDS011;41744;52.404;16.942;2022-10-31T21:26:19;56.50;;;24.20;;
55815;SDS011;41744;52.404;16.942;2022-10-31T21:28:45;55.97;;;26.02;;
55815;SDS011;41744;52.404;16.942;2022-10-31T21:31:13;67.28;;;27.73;;
55815;SDS011;41744;52.404;16.942;2022-10-31T21:33:39;57.08;;;26.30;;
55815;SDS011;41744;52.404;16.942;2022-10-31T21:36:05;49.90;;;23.70;;
55815;SDS011;41744;52.404;16.942;2022-10-31T21:38:31;47.05;;;23.13;;
55815;SDS011;41744;52.404;16.942;2022-10-31T21:41:02;51.15;;;24.15;;
55815;SDS011;41744;52.404;16.942;2022-10-31T21:43:28;51.22;;;24.25;;
55815;SDS011;41744;52.404;16.942;2022-10-31T21:45:54;54.40;;;24.60;;
55815;SDS011;41744;52.404;16.942;2022-10-31T21:48:20;50.53;;;23.77;;
55815;SDS011;41744;52.404;16.942;2022-10-31T21:50:46;52.17;;;24.23;;
55815;SDS011;41744;52.404;16.942;2022-10-31T21:53:12;58.58;;;25.80;;
55815;SDS011;41744;52.404;16.942;2022-10-31T21:56:01;58.85;;;24.73;;
55815;SDS011;41744;52.404;16.942;2022-10-31T21:58:27;57.33;;;25.75;;
55815;SDS011;41744;52.404;16.942;2022-10-31T22:00:53;60.42;;;25.08;;
55815;SDS011;41744;52.404;16.942;2022-10-31T22:03:19;62.60;;;26.73;;
55815;SDS011;41744;52.404;16.942;2022-10-31T22:05:45;56.28;;;26.85;;
55815;SDS011;41744;52.404;16.942;2022-10-31T22:08:11;59.60;;;28.10;;
55815;SDS011;41744;52.404;16.942;2022-10-31T22:10:37;56.33;;;26.52;;
55815;SDS011;41744;52.404;16.942;2022-10-31T22:13:03;57.70;;;26.50;;
55815;SDS011;41744;52.404;16.942;2022-10-31T22:15:29;57.30;;;26.60;;
55815;SDS011;41744;52.404;16.942;2022-10-31T22:17:56;56.63;;;27.08;;
55815;SDS011;41744;52.404;16.942;2022-10-31T22:20:21;69.72;;;32.22;;
55815;SDS011;41744;52.404;16.942;2022-10-31T22:22:48;69.57;;;32.05;;
55815;SDS011;41744;52.404;16.942;2022-10-31T22:25:15;62.92;;;30.15;;
55815;SDS011;41744;52.404;16.942;2022-10-31T22:27:40;59.10;;;26.35;;
55815;SDS011;41744;52.404;16.942;2022-10-31T22:30:07;60.75;;;27.30;;
55815;SDS011;41744;52.404;16.942;2022-10-31T22:32:33;60.30;;;26.73;;
55815;SDS011;41744;52.404;16.942;2022-10-31T22:34:59;52.47;;;25.85;;
55815;SDS011;41744;52.404;16.942;2022-10-31T22:37:28;53.88;;;26.02;;
55815;SDS011;41744;52.404;16.942;2022-10-31T22:39:54;59.53;;;27.17;;
55815;SDS011;41744;52.404;16.942;2022-10-31T22:42:19;60.75;;;26.20;;
55815;SDS011;41744;52.404;16.942;2022-10-31T22:44:45;56.47;;;26.63;;
55815;SDS011;41744;52.404;16.942;2022-10-31T22:47:11;53.45;;;25.00;;
55815;SDS011;41744;52.404;16.942;2022-10-31T22:49:37;60.00;;;23.45;;
55815;SDS011;41744;52.404;16.942;2022-10-31T22:52:03;59.72;;;24.35;;
55815;SDS011;41744;52.404;16.942;2022-10-31T22:54:29;52.85;;;24.27;;
55815;SDS011;41744;52.404;16.942;2022-10-31T22:56:56;52.33;;;25.23;;
55815;SDS011;41744;52.404;16.942;2022-10-31T22:59:22;48.40;;;23.50;;
55815;SDS011;41744;52.404;16.942;2022-10-31T23:01:48;45.55;;;22.30;;
55815;SDS011;41744;52.404;16.942;2022-10-31T23:04:14;50.25;;;23.65;;